sensor_id;sensor_type;location;lat;lon;timestamp;P1;durP1;ratioP1;P2;durP2;ratioP2
15254;SDS011;7730;49.610;11.136;2024-01-15T00:01:41;30.97;;;17.63;;
15254;SDS011;7730;49.610;11.136;2024-01-15T00:04:09;30.67;;;18.33;;
15254;SDS011;7730;49.610;11.136;2024-01-15T00:06:38;31.70;;;18.37;;
15254;SDS011;7730;49.610;11.136;2024-01-15T00:09:06;29.50;;;17.70;;
15254;SDS011;7730;49.610;11.136;2024-01-15T00:11:36;29.27;;;16.90;;
15254;SDS011;7730;49.610;11.136;2024-01-15T00:14:05;28.37;;;16.63;;
15254;SDS011;7730;49.610;11.136;2024-01-15T00:16:32;29.53;;;16.90;;
15254;SDS011;7730;49.610;11.136;2024-01-15T00:18:59;29.37;;;16.87;;
15254;SDS011;7730;49.610;11.136;2024-01-15T00:21:26;29.80;;;16.47;;
15254;SDS011;7730;49.610;11.136;2024-01-15T00:23:54;28.37;;;15.60;;
15254;SDS011;7730;49.610;11.136;2024-01-15T00:26:23;27.57;;;15.90;;
15254;SDS011;7730;49.610;11.136;2024-01-15T00:28:50;30.07;;;17.80;;
15254;SDS011;7730;49.610;11.136;2024-01-15T00:31:16;30.80;;;18.07;;
15254;SDS011;7730;49.610;11.136;2024-01-15T00:33:43;27.40;;;15.80;;
15254;SDS011;7730;49.610;11.136;2024-01-15T00:36:10;29.17;;;16.77;;
15254;SDS011;7730;49.610;11.136;2024-01-15T00:38:39;28.47;;;17.40;;
15254;SDS011;7730;49.610;11.136;2024-01-15T00:41:06;29.30;;;17.10;;
15254;SDS011;7730;49.610;11.136;2024-01-15T00:43:35;28.73;;;16.50;;
15254;SDS011;7730;49.610;11.136;2024-01-15T00:46:04;30.27;;;16.87;;
15254;SDS011;7730;49.610;11.136;2024-01-15T00:48:31;30.67;;;17.27;;
15254;SDS011;7730;49.610;11.136;2024-01-15T00:50:58;28.60;;;16.43;;
15254;SDS011;7730;49.610;11.136;2024-01-15T00:53:27;30.03;;;17.20;;
15254;SDS011;7730;49.610;11.136;2024-01-15T00:55:54;29.23;;;17.13;;
15254;SDS011;7730;49.610;11.136;2024-01-15T00:58:24;29.83;;;16.63;;
15254;SDS011;7730;49.610;11.136;2024-01-15T01:00:55;29.97;;;17.37;;
15254;SDS011;7730;49.610;11.136;2024-01-15T01:03:25;29.07;;;17.30;;
15254;SDS011;7730;49.610;11.136;2024-01-15T01:05:52;29.20;;;16.77;;
15254;SDS011;7730;49.610;11.136;2024-01-15T01:08:21;28.43;;;17.00;;
15254;SDS011;7730;49.610;11.136;2024-01-15T01:10:48;26.47;;;15.73;;
15254;SDS011;7730;49.610;11.136;2024-01-15T01:13:16;28.30;;;16.20;;
15254;SDS011;7730;49.610;11.136;2024-01-15T01:15:45;30.40;;;17.93;;
15254;SDS011;7730;49.610;11.136;2024-01-15T01:18:13;29.83;;;16.90;;
15254;SDS011;7730;49.610;11.136;2024-01-15T01:20:46;29.83;;;16.67;;
15254;SDS011;7730;49.610;11.136;2024-01-15T01:23:13;31.57;;;16.57;;
15254;SDS011;7730;49.610;11.136;2024-01-15T01:25:40;28.70;;;16.63;;
15254;SDS011;7730;49.610;11.136;2024-01-15T01:28:07;27.97;;;15.67;;
15254;SDS011;7730;49.610;11.136;2024-01-15T01:30:34;28.90;;;16.13;;
15254;SDS011;7730;49.610;11.136;2024-01-15T01:33:01;27.93;;;15.67;;
15254;SDS011;7730;49.610;11.136;2024-01-15T01:35:30;29.20;;;17.10;;
15254;SDS011;7730;49.610;11.136;2024-01-15T01:38:05;29.37;;;16.60;;
15254;SDS011;7730;49.610;11.136;2024-01-15T01:40:32;28.30;;;16.87;;
15254;SDS011;7730;49.610;11.136;2024-01-15T01:42:58;29.90;;;16.77;;
15254;SDS011;7730;49.610;11.136;2024-01-15T01:45:33;29.07;;;16.60;;
15254;SDS011;7730;49.610;11.136;2024-01-15T01:48:03;27.60;;;15.83;;
15254;SDS011;7730;49.610;11.136;2024-01-15T01:50:32;28.93;;;17.10;;
15254;SDS011;7730;49.610;11.136;2024-01-15T01:53:01;27.77;;;16.73;;
15254;SDS011;7730;49.610;11.136;2024-01-15T01:55:29;28.47;;;16.50;;
15254;SDS011;7730;49.610;11.136;2024-01-15T01:58:01;27.70;;;16.73;;
15254;SDS011;7730;49.610;11.136;2024-01-15T02:00:29;29.13;;;16.73;;
15254;SDS011;7730;49.610;11.136;2024-01-15T02:02:57;28.63;;;15.80;;
15254;SDS011;7730;49.610;11.136;2024-01-15T02:05:24;29.13;;;16.63;;
15254;SDS011;7730;49.610;11.136;2024-01-15T02:08:04;27.10;;;16.20;;
15254;SDS011;7730;49.610;11.136;2024-01-15T02:10:38;27.67;;;15.60;;
15254;SDS011;7730;49.610;11.136;2024-01-15T02:13:09;29.07;;;16.53;;
15254;SDS011;7730;49.610;11.136;2024-01-15T02:15:37;26.47;;;15.63;;
15254;SDS011;7730;49.610;11.136;2024-01-15T02:18:05;27.43;;;16.43;;
15254;SDS011;7730;49.610;11.136;2024-01-15T02:20:37;27.60;;;16.60;;
15254;SDS011;7730;49.610;11.136;2024-01-15T02:23:07;28.13;;;16.13;;
15254;SDS011;7730;49.610;11.136;2024-01-15T02:25:35;25.97;;;16.17;;
15254;SDS011;7730;49.610;11.136;2024-01-15T02:28:04;28.93;;;16.93;;
15254;SDS011;7730;49.610;11.136;2024-01-15T02:30:31;26.97;;;15.77;;
15254;SDS011;7730;49.610;11.136;2024-01-15T02:33:01;27.03;;;16.70;;
15254;SDS011;7730;49.610;11.136;2024-01-15T02:35:30;27.47;;;16.60;;
15254;SDS011;7730;49.610;11.136;2024-01-15T02:37:58;26.43;;;15.60;;
15254;SDS011;7730;49.610;11.136;2024-01-15T02:40:26;26.90;;;15.83;;
15254;SDS011;7730;49.610;11.136;2024-01-15T02:42:56;26.30;;;15.37;;
15254;SDS011;7730;49.610;11.136;2024-01-15T02:45:23;26.87;;;15.77;;
15254;SDS011;7730;49.610;11.136;2024-01-15T02:47:52;26.70;;;15.43;;
15254;SDS011;7730;49.610;11.136;2024-01-15T02:50:19;27.17;;;15.00;;
15254;SDS011;7730;49.610;11.136;2024-01-15T02:52:46;27.30;;;16.47;;
15254;SDS011;7730;49.610;11.136;2024-01-15T02:55:13;26.30;;;15.53;;
15254;SDS011;7730;49.610;11.136;2024-01-15T02:57:41;26.07;;;15.60;;
15254;SDS011;7730;49.610;11.136;2024-01-15T03:00:09;26.93;;;15.90;;
15254;SDS011;7730;49.610;11.136;2024-01-15T03:02:37;26.40;;;15.03;;
15254;SDS011;7730;49.610;11.136;2024-01-15T03:05:07;26.10;;;15.70;;
15254;SDS011;7730;49.610;11.136;2024-01-15T03:07:34;25.53;;;15.17;;
15254;SDS011;7730;49.610;11.136;2024-01-15T03:10:01;25.93;;;15.33;;
15254;SDS011;7730;49.610;11.136;2024-01-15T03:12:28;25.27;;;14.47;;
15254;SDS011;7730;49.610;11.136;2024-01-15T03:14:59;25.53;;;15.70;;
15254;SDS011;7730;49.610;11.136;2024-01-15T03:17:26;25.83;;;14.90;;
15254;SDS011;7730;49.610;11.136;2024-01-15T03:19:53;27.40;;;16.00;;
15254;SDS011;7730;49.610;11.136;2024-01-15T03:22:20;25.38;;;16.10;;
15254;SDS011;7730;49.610;11.136;2024-01-15T03:24:47;25.37;;;14.40;;
15254;SDS011;7730;49.610;11.136;2024-01-15T03:27:15;25.40;;;14.63;;
15254;SDS011;7730;49.610;11.136;2024-01-15T03:29:45;25.17;;;13.97;;
15254;SDS011;7730;49.610;11.136;2024-01-15T03:32:15;25.53;;;14.87;;
15254;SDS011;7730;49.610;11.136;2024-01-15T03:34:44;24.03;;;13.43;;
15254;SDS011;7730;49.610;11.136;2024-01-15T03:37:13;23.87;;;14.73;;
15254;SDS011;7730;49.610;11.136;2024-01-15T03:39:40;23.20;;;13.57;;
15254;SDS011;7730;49.610;11.136;2024-01-15T03:42:09;22.73;;;13.63;;
15254;SDS011;7730;49.610;11.136;2024-01-15T03:44:43;22.90;;;13.90;;
15254;SDS011;7730;49.610;11.136;2024-01-15T03:47:16;23.97;;;12.93;;
15254;SDS011;7730;49.610;11.136;2024-01-15T03:49:44;23.63;;;13.70;;
15254;SDS011;7730;49.610;11.136;2024-01-15T03:52:14;24.30;;;14.30;;
15254;SDS011;7730;49.610;11.136;2024-01-15T03:54:43;22.73;;;14.07;;
15254;SDS011;7730;49.610;11.136;2024-01-15T03:57:15;24.30;;;12.97;;
15254;SDS011;7730;49.610;11.136;2024-01-15T03:59:43;21.57;;;13.53;;
15254;SDS011;7730;49.610;11.136;2024-01-15T04:02:19;22.90;;;13.50;;
15254;SDS011;7730;49.610;11.136;2024-01-15T04:04:46;23.47;;;12.33;;
15254;SDS011;7730;49.610;11.136;2024-01-15T04:07:13;22.87;;;12.50;;
15254;SDS011;7730;49.610;11.136;2024-01-15T04:09:40;23.23;;;12.57;;
15254;SDS011;7730;49.610;11.136;2024-01-15T04:12:10;22.63;;;12.50;;
15254;SDS011;7730;49.610;11.136;2024-01-15T04:14:37;21.93;;;13.10;;
15254;SDS011;7730;49.610;11.136;2024-01-15T04:17:05;22.23;;;12.33;;
15254;SDS011;7730;49.610;11.136;2024-01-15T04:19:35;23.80;;;13.40;;
15254;SDS011;7730;49.610;11.136;2024-01-15T04:22:09;22.97;;;11.93;;
15254;SDS011;7730;49.610;11.136;2024-01-15T04:24:42;22.97;;;12.30;;
15254;SDS011;7730;49.610;11.136;2024-01-15T04:27:10;22.20;;;13.07;;
15254;SDS011;7730;49.610;11.136;2024-01-15T04:29:37;21.10;;;12.60;;
15254;SDS011;7730;49.610;11.136;2024-01-15T04:32:05;20.50;;;11.53;;
15254;SDS011;7730;49.610;11.136;2024-01-15T04:34:32;21.60;;;12.57;;
15254;SDS011;7730;49.610;11.136;2024-01-15T04:37:02;20.47;;;11.30;;
15254;SDS011;7730;49.610;11.136;2024-01-15T04:39:30;21.97;;;11.80;;
15254;SDS011;7730;49.610;11.136;2024-01-15T04:41:57;20.63;;;11.90;;
15254;SDS011;7730;49.610;11.136;2024-01-15T04:44:26;22.50;;;11.87;;
15254;SDS011;7730;49.610;11.136;2024-01-15T04:46:53;19.73;;;11.17;;
15254;SDS011;7730;49.610;11.136;2024-01-15T04:49:20;22.15;;;13.95;;
15254;SDS011;7730;49.610;11.136;2024-01-15T04:51:47;20.87;;;11.90;;
15254;SDS011;7730;49.610;11.136;2024-01-15T04:54:18;20.73;;;11.50;;
15254;SDS011;7730;49.610;11.136;2024-01-15T04:56:45;21.23;;;11.57;;
15254;SDS011;7730;49.610;11.136;2024-01-15T04:59:14;22.27;;;13.40;;
15254;SDS011;7730;49.610;11.136;2024-01-15T05:01:42;21.00;;;12.33;;
15254;SDS011;7730;49.610;11.136;2024-01-15T05:04:09;22.13;;;11.07;;
15254;SDS011;7730;49.610;11.136;2024-01-15T05:06:37;21.13;;;11.23;;
15254;SDS011;7730;49.610;11.136;2024-01-15T05:09:04;21.50;;;13.40;;
15254;SDS011;7730;49.610;11.136;2024-01-15T05:11:36;21.03;;;12.30;;
15254;SDS011;7730;49.610;11.136;2024-01-15T05:14:02;22.80;;;11.97;;
15254;SDS011;7730;49.610;11.136;2024-01-15T05:16:29;21.03;;;11.53;;
15254;SDS011;7730;49.610;11.136;2024-01-15T05:18:59;21.40;;;11.37;;
15254;SDS011;7730;49.610;11.136;2024-01-15T05:21:27;20.83;;;11.03;;
15254;SDS011;7730;49.610;11.136;2024-01-15T05:23:54;21.00;;;11.77;;
15254;SDS011;7730;49.610;11.136;2024-01-15T05:26:22;21.13;;;11.77;;
15254;SDS011;7730;49.610;11.136;2024-01-15T05:28:50;21.20;;;12.70;;
15254;SDS011;7730;49.610;11.136;2024-01-15T05:31:17;22.20;;;12.87;;
15254;SDS011;7730;49.610;11.136;2024-01-15T05:33:45;22.37;;;11.70;;
15254;SDS011;7730;49.610;11.136;2024-01-15T05:36:12;20.90;;;11.93;;
15254;SDS011;7730;49.610;11.136;2024-01-15T05:38:41;21.07;;;11.53;;
15254;SDS011;7730;49.610;11.136;2024-01-15T05:41:08;20.97;;;10.87;;
15254;SDS011;7730;49.610;11.136;2024-01-15T05:43:35;20.97;;;12.07;;
15254;SDS011;7730;49.610;11.136;2024-01-15T05:46:05;21.17;;;11.20;;
15254;SDS011;7730;49.610;11.136;2024-01-15T05:48:32;21.80;;;12.23;;
15254;SDS011;7730;49.610;11.136;2024-01-15T05:50:59;20.27;;;10.70;;
15254;SDS011;7730;49.610;11.136;2024-01-15T05:53:27;19.83;;;11.27;;
15254;SDS011;7730;49.610;11.136;2024-01-15T05:55:54;21.40;;;11.27;;
15254;SDS011;7730;49.610;11.136;2024-01-15T05:58:26;22.43;;;11.57;;
15254;SDS011;7730;49.610;11.136;2024-01-15T06:00:57;21.10;;;11.03;;
15254;SDS011;7730;49.610;11.136;2024-01-15T06:03:28;20.90;;;11.37;;
15254;SDS011;7730;49.610;11.136;2024-01-15T06:05:55;20.97;;;11.23;;
15254;SDS011;7730;49.610;11.136;2024-01-15T06:08:22;22.67;;;11.03;;
15254;SDS011;7730;49.610;11.136;2024-01-15T06:10:52;21.87;;;12.43;;
15254;SDS011;7730;49.610;11.136;2024-01-15T06:13:20;21.53;;;12.10;;
15254;SDS011;7730;49.610;11.136;2024-01-15T06:15:47;21.80;;;11.87;;
15254;SDS011;7730;49.610;11.136;2024-01-15T06:18:14;21.80;;;12.47;;
15254;SDS011;7730;49.610;11.136;2024-01-15T06:20:42;21.07;;;10.43;;
15254;SDS011;7730;49.610;11.136;2024-01-15T06:23:09;20.73;;;10.80;;
15254;SDS011;7730;49.610;11.136;2024-01-15T06:25:37;20.90;;;10.87;;
15254;SDS011;7730;49.610;11.136;2024-01-15T06:28:04;21.60;;;12.30;;
15254;SDS011;7730;49.610;11.136;2024-01-15T06:30:31;20.37;;;11.10;;
15254;SDS011;7730;49.610;11.136;2024-01-15T06:32:59;21.33;;;11.43;;
15254;SDS011;7730;49.610;11.136;2024-01-15T06:35:26;19.30;;;10.50;;
15254;SDS011;7730;49.610;11.136;2024-01-15T06:37:55;21.30;;;12.00;;
15254;SDS011;7730;49.610;11.136;2024-01-15T06:40:23;20.60;;;11.43;;
15254;SDS011;7730;49.610;11.136;2024-01-15T06:42:50;19.23;;;10.33;;
15254;SDS011;7730;49.610;11.136;2024-01-15T06:45:22;20.47;;;10.87;;
15254;SDS011;7730;49.610;11.136;2024-01-15T06:47:50;20.17;;;10.97;;
15254;SDS011;7730;49.610;11.136;2024-01-15T06:50:17;20.23;;;10.57;;
15254;SDS011;7730;49.610;11.136;2024-01-15T06:52:48;19.67;;;10.67;;
15254;SDS011;7730;49.610;11.136;2024-01-15T06:55:20;18.43;;;10.23;;
15254;SDS011;7730;49.610;11.136;2024-01-15T06:57:47;20.17;;;10.77;;
15254;SDS011;7730;49.610;11.136;2024-01-15T07:00:15;19.37;;;10.53;;
15254;SDS011;7730;49.610;11.136;2024-01-15T07:02:44;20.67;;;10.33;;
15254;SDS011;7730;49.610;11.136;2024-01-15T07:05:11;19.73;;;10.17;;
15254;SDS011;7730;49.610;11.136;2024-01-15T07:07:38;20.37;;;10.00;;
15254;SDS011;7730;49.610;11.136;2024-01-15T07:10:06;19.60;;;10.33;;
15254;SDS011;7730;49.610;11.136;2024-01-15T07:12:34;18.50;;;9.60;;
15254;SDS011;7730;49.610;11.136;2024-01-15T07:15:01;19.50;;;10.43;;
15254;SDS011;7730;49.610;11.136;2024-01-15T07:17:30;20.53;;;11.10;;
15254;SDS011;7730;49.610;11.136;2024-01-15T07:19:57;18.43;;;9.63;;
15254;SDS011;7730;49.610;11.136;2024-01-15T07:22:27;19.57;;;10.80;;
15254;SDS011;7730;49.610;11.136;2024-01-15T07:24:54;20.43;;;11.00;;
15254;SDS011;7730;49.610;11.136;2024-01-15T07:27:21;20.53;;;10.67;;
15254;SDS011;7730;49.610;11.136;2024-01-15T07:29:54;21.23;;;10.77;;
15254;SDS011;7730;49.610;11.136;2024-01-15T07:32:21;19.70;;;10.00;;
15254;SDS011;7730;49.610;11.136;2024-01-15T07:34:48;19.47;;;10.43;;
15254;SDS011;7730;49.610;11.136;2024-01-15T07:37:15;20.47;;;10.87;;
15254;SDS011;7730;49.610;11.136;2024-01-15T07:39:42;19.10;;;10.57;;
15254;SDS011;7730;49.610;11.136;2024-01-15T07:42:09;19.90;;;10.87;;
15254;SDS011;7730;49.610;11.136;2024-01-15T07:44:36;19.30;;;9.93;;
15254;SDS011;7730;49.610;11.136;2024-01-15T07:47:05;20.23;;;11.00;;
15254;SDS011;7730;49.610;11.136;2024-01-15T07:49:35;20.90;;;10.40;;
15254;SDS011;7730;49.610;11.136;2024-01-15T07:52:03;19.70;;;10.67;;
15254;SDS011;7730;49.610;11.136;2024-01-15T07:54:31;20.03;;;10.30;;
15254;SDS011;7730;49.610;11.136;2024-01-15T07:56:58;18.83;;;9.77;;
15254;SDS011;7730;49.610;11.136;2024-01-15T07:59:28;17.90;;;9.70;;
15254;SDS011;7730;49.610;11.136;2024-01-15T08:01:55;18.60;;;10.30;;
15254;SDS011;7730;49.610;11.136;2024-01-15T08:04:26;18.00;;;9.57;;
15254;SDS011;7730;49.610;11.136;2024-01-15T08:06:57;20.27;;;11.23;;
15254;SDS011;7730;49.610;11.136;2024-01-15T08:09:23;20.00;;;10.60;;
15254;SDS011;7730;49.610;11.136;2024-01-15T08:11:50;20.63;;;10.03;;
15254;SDS011;7730;49.610;11.136;2024-01-15T08:14:18;19.23;;;9.43;;
15254;SDS011;7730;49.610;11.136;2024-01-15T08:16:45;18.30;;;9.47;;
15254;SDS011;7730;49.610;11.136;2024-01-15T08:19:12;18.33;;;10.00;;
15254;SDS011;7730;49.610;11.136;2024-01-15T08:21:41;19.30;;;11.10;;
15254;SDS011;7730;49.610;11.136;2024-01-15T08:24:10;19.63;;;10.60;;
15254;SDS011;7730;49.610;11.136;2024-01-15T08:26:37;19.23;;;10.77;;
15254;SDS011;7730;49.610;11.136;2024-01-15T08:29:04;19.93;;;11.10;;
15254;SDS011;7730;49.610;11.136;2024-01-15T08:31:31;19.03;;;10.10;;
15254;SDS011;7730;49.610;11.136;2024-01-15T08:33:58;19.33;;;10.67;;
15254;SDS011;7730;49.610;11.136;2024-01-15T08:36:28;19.13;;;10.43;;
15254;SDS011;7730;49.610;11.136;2024-01-15T08:38:57;19.73;;;10.10;;
15254;SDS011;7730;49.610;11.136;2024-01-15T08:41:24;19.40;;;9.93;;
15254;SDS011;7730;49.610;11.136;2024-01-15T08:43:51;19.20;;;10.70;;
15254;SDS011;7730;49.610;11.136;2024-01-15T08:46:19;26.03;;;11.47;;
15254;SDS011;7730;49.610;11.136;2024-01-15T08:48:47;19.73;;;10.20;;
15254;SDS011;7730;49.610;11.136;2024-01-15T08:51:16;19.70;;;10.53;;
15254;SDS011;7730;49.610;11.136;2024-01-15T08:53:46;19.10;;;10.03;;
15254;SDS011;7730;49.610;11.136;2024-01-15T08:56:15;18.97;;;10.57;;
15254;SDS011;7730;49.610;11.136;2024-01-15T08:58:53;19.57;;;9.80;;
15254;SDS011;7730;49.610;11.136;2024-01-15T09:01:20;18.33;;;9.07;;
15254;SDS011;7730;49.610;11.136;2024-01-15T09:03:48;19.13;;;9.53;;
15254;SDS011;7730;49.610;11.136;2024-01-15T09:06:17;18.93;;;9.50;;
15254;SDS011;7730;49.610;11.136;2024-01-15T09:08:45;19.40;;;9.63;;
15254;SDS011;7730;49.610;11.136;2024-01-15T09:11:15;18.77;;;10.03;;
15254;SDS011;7730;49.610;11.136;2024-01-15T09:13:44;18.50;;;9.63;;
15254;SDS011;7730;49.610;11.136;2024-01-15T09:16:11;18.97;;;10.13;;
15254;SDS011;7730;49.610;11.136;2024-01-15T09:18:42;19.90;;;10.40;;
15254;SDS011;7730;49.610;11.136;2024-01-15T09:21:10;18.23;;;10.50;;
15254;SDS011;7730;49.610;11.136;2024-01-15T09:23:37;17.83;;;9.90;;
15254;SDS011;7730;49.610;11.136;2024-01-15T09:26:07;20.03;;;10.00;;
15254;SDS011;7730;49.610;11.136;2024-01-15T09:28:35;18.23;;;10.23;;
15254;SDS011;7730;49.610;11.136;2024-01-15T09:31:03;18.93;;;9.80;;
15254;SDS011;7730;49.610;11.136;2024-01-15T09:33:30;20.03;;;10.27;;
15254;SDS011;7730;49.610;11.136;2024-01-15T09:36:01;17.63;;;9.63;;
15254;SDS011;7730;49.610;11.136;2024-01-15T09:38:30;19.20;;;10.13;;
15254;SDS011;7730;49.610;11.136;2024-01-15T09:40:57;18.33;;;9.70;;
15254;SDS011;7730;49.610;11.136;2024-01-15T09:43:25;17.80;;;9.73;;
15254;SDS011;7730;49.610;11.136;2024-01-15T09:45:55;18.07;;;9.60;;
15254;SDS011;7730;49.610;11.136;2024-01-15T09:48:23;19.07;;;9.47;;
15254;SDS011;7730;49.610;11.136;2024-01-15T09:50:50;17.93;;;9.60;;
15254;SDS011;7730;49.610;11.136;2024-01-15T09:53:19;18.17;;;9.77;;
15254;SDS011;7730;49.610;11.136;2024-01-15T09:55:49;17.60;;;9.33;;
15254;SDS011;7730;49.610;11.136;2024-01-15T09:58:16;16.67;;;9.10;;
15254;SDS011;7730;49.610;11.136;2024-01-15T10:00:44;18.67;;;9.20;;
15254;SDS011;7730;49.610;11.136;2024-01-15T10:03:12;19.70;;;10.70;;
15254;SDS011;7730;49.610;11.136;2024-01-15T10:05:39;19.60;;;10.13;;
15254;SDS011;7730;49.610;11.136;2024-01-15T10:08:11;18.60;;;9.63;;
15254;SDS011;7730;49.610;11.136;2024-01-15T10:10:38;18.60;;;10.30;;
15254;SDS011;7730;49.610;11.136;2024-01-15T10:13:05;18.47;;;9.60;;
15254;SDS011;7730;49.610;11.136;2024-01-15T10:15:33;17.23;;;9.27;;
15254;SDS011;7730;49.610;11.136;2024-01-15T10:18:01;18.37;;;9.70;;
15254;SDS011;7730;49.610;11.136;2024-01-15T10:20:30;17.70;;;9.80;;
15254;SDS011;7730;49.610;11.136;2024-01-15T10:23:04;18.50;;;10.10;;
15254;SDS011;7730;49.610;11.136;2024-01-15T10:25:31;19.00;;;9.93;;
15254;SDS011;7730;49.610;11.136;2024-01-15T10:27:59;17.83;;;9.20;;
15254;SDS011;7730;49.610;11.136;2024-01-15T10:30:29;19.30;;;10.83;;
15254;SDS011;7730;49.610;11.136;2024-01-15T10:32:59;18.03;;;9.63;;
15254;SDS011;7730;49.610;11.136;2024-01-15T10:35:29;18.63;;;9.90;;
15254;SDS011;7730;49.610;11.136;2024-01-15T10:37:58;18.50;;;9.60;;
15254;SDS011;7730;49.610;11.136;2024-01-15T10:40:28;17.27;;;9.57;;
15254;SDS011;7730;49.610;11.136;2024-01-15T10:42:55;18.27;;;9.00;;
15254;SDS011;7730;49.610;11.136;2024-01-15T10:45:23;18.10;;;8.63;;
15254;SDS011;7730;49.610;11.136;2024-01-15T10:47:50;17.07;;;9.37;;
15254;SDS011;7730;49.610;11.136;2024-01-15T10:50:19;16.47;;;8.47;;
15254;SDS011;7730;49.610;11.136;2024-01-15T10:52:47;17.53;;;9.20;;
15254;SDS011;7730;49.610;11.136;2024-01-15T10:55:16;16.47;;;8.30;;
15254;SDS011;7730;49.610;11.136;2024-01-15T10:57:44;17.03;;;8.97;;
15254;SDS011;7730;49.610;11.136;2024-01-15T11:00:12;17.03;;;8.30;;
15254;SDS011;7730;49.610;11.136;2024-01-15T11:02:42;16.67;;;8.27;;
15254;SDS011;7730;49.610;11.136;2024-01-15T11:05:11;17.07;;;8.83;;
15254;SDS011;7730;49.610;11.136;2024-01-15T11:07:43;16.50;;;8.63;;
15254;SDS011;7730;49.610;11.136;2024-01-15T11:12:54;15.80;;;8.33;;
15254;SDS011;7730;49.610;11.136;2024-01-15T11:15:21;16.60;;;8.63;;
15254;SDS011;7730;49.610;11.136;2024-01-15T11:18:00;16.67;;;8.80;;
15254;SDS011;7730;49.610;11.136;2024-01-15T11:20:30;17.70;;;8.87;;
15254;SDS011;7730;49.610;11.136;2024-01-15T11:22:58;15.47;;;7.87;;
15254;SDS011;7730;49.610;11.136;2024-01-15T11:25:34;16.27;;;8.00;;
15254;SDS011;7730;49.610;11.136;2024-01-15T11:28:05;16.23;;;8.27;;
15254;SDS011;7730;49.610;11.136;2024-01-15T11:30:33;15.87;;;8.40;;
15254;SDS011;7730;49.610;11.136;2024-01-15T11:33:02;17.60;;;8.80;;
15254;SDS011;7730;49.610;11.136;2024-01-15T11:38:20;16.40;;;8.27;;
15254;SDS011;7730;49.610;11.136;2024-01-15T11:40:53;16.47;;;8.80;;
15254;SDS011;7730;49.610;11.136;2024-01-15T11:43:21;17.27;;;9.83;;
15254;SDS011;7730;49.610;11.136;2024-01-15T11:45:49;16.60;;;9.43;;
15254;SDS011;7730;49.610;11.136;2024-01-15T11:48:20;15.90;;;8.10;;
15254;SDS011;7730;49.610;11.136;2024-01-15T11:50:50;16.50;;;8.70;;
15254;SDS011;7730;49.610;11.136;2024-01-15T11:53:26;16.10;;;8.43;;
15254;SDS011;7730;49.610;11.136;2024-01-15T11:55:57;16.40;;;8.90;;
15254;SDS011;7730;49.610;11.136;2024-01-15T11:58:26;15.30;;;8.80;;
15254;SDS011;7730;49.610;11.136;2024-01-15T12:00:53;16.20;;;8.07;;
15254;SDS011;7730;49.610;11.136;2024-01-15T12:03:20;16.20;;;8.57;;
15254;SDS011;7730;49.610;11.136;2024-01-15T12:05:48;16.80;;;9.20;;
15254;SDS011;7730;49.610;11.136;2024-01-15T12:08:20;17.20;;;9.17;;
15254;SDS011;7730;49.610;11.136;2024-01-15T12:10:47;15.17;;;8.40;;
15254;SDS011;7730;49.610;11.136;2024-01-15T12:13:17;15.90;;;8.67;;
15254;SDS011;7730;49.610;11.136;2024-01-15T12:15:49;17.03;;;8.13;;
15254;SDS011;7730;49.610;11.136;2024-01-15T12:18:16;15.23;;;7.77;;
15254;SDS011;7730;49.610;11.136;2024-01-15T12:20:44;16.77;;;9.17;;
15254;SDS011;7730;49.610;11.136;2024-01-15T12:23:12;16.47;;;8.03;;
15254;SDS011;7730;49.610;11.136;2024-01-15T12:25:40;16.23;;;8.40;;
15254;SDS011;7730;49.610;11.136;2024-01-15T12:28:09;18.37;;;9.57;;
15254;SDS011;7730;49.610;11.136;2024-01-15T12:30:38;16.20;;;8.70;;
15254;SDS011;7730;49.610;11.136;2024-01-15T12:33:08;17.30;;;8.83;;
15254;SDS011;7730;49.610;11.136;2024-01-15T12:35:38;18.53;;;9.30;;
15254;SDS011;7730;49.610;11.136;2024-01-15T12:38:05;18.33;;;9.40;;
15254;SDS011;7730;49.610;11.136;2024-01-15T12:40:32;16.23;;;9.30;;
15254;SDS011;7730;49.610;11.136;2024-01-15T12:43:00;17.07;;;8.80;;
15254;SDS011;7730;49.610;11.136;2024-01-15T12:45:30;16.53;;;8.73;;
15254;SDS011;7730;49.610;11.136;2024-01-15T12:47:58;16.33;;;8.10;;
15254;SDS011;7730;49.610;11.136;2024-01-15T12:50:26;15.70;;;8.33;;
15254;SDS011;7730;49.610;11.136;2024-01-15T12:52:54;15.67;;;7.73;;
15254;SDS011;7730;49.610;11.136;2024-01-15T12:55:24;14.93;;;8.13;;
15254;SDS011;7730;49.610;11.136;2024-01-15T12:57:53;15.57;;;8.17;;
15254;SDS011;7730;49.610;11.136;2024-01-15T13:00:20;15.50;;;8.13;;
15254;SDS011;7730;49.610;11.136;2024-01-15T13:02:48;15.90;;;8.60;;
15254;SDS011;7730;49.610;11.136;2024-01-15T13:05:16;14.87;;;7.67;;
15254;SDS011;7730;49.610;11.136;2024-01-15T13:07:45;14.50;;;7.53;;
15254;SDS011;7730;49.610;11.136;2024-01-15T13:10:12;14.03;;;7.57;;
15254;SDS011;7730;49.610;11.136;2024-01-15T13:12:39;14.33;;;7.07;;
15254;SDS011;7730;49.610;11.136;2024-01-15T13:15:08;14.33;;;7.53;;
15254;SDS011;7730;49.610;11.136;2024-01-15T13:17:37;15.17;;;7.40;;
15254;SDS011;7730;49.610;11.136;2024-01-15T13:20:05;14.50;;;7.33;;
15254;SDS011;7730;49.610;11.136;2024-01-15T13:22:33;14.30;;;8.00;;
15254;SDS011;7730;49.610;11.136;2024-01-15T13:25:02;15.43;;;8.13;;
15254;SDS011;7730;49.610;11.136;2024-01-15T13:27:32;14.63;;;7.40;;
15254;SDS011;7730;49.610;11.136;2024-01-15T13:30:01;14.83;;;7.30;;
15254;SDS011;7730;49.610;11.136;2024-01-15T13:32:31;14.40;;;7.43;;
15254;SDS011;7730;49.610;11.136;2024-01-15T13:35:00;14.33;;;7.57;;
15254;SDS011;7730;49.610;11.136;2024-01-15T13:37:30;15.43;;;7.83;;
15254;SDS011;7730;49.610;11.136;2024-01-15T13:39:57;14.80;;;7.80;;
15254;SDS011;7730;49.610;11.136;2024-01-15T13:42:26;15.33;;;8.13;;
15254;SDS011;7730;49.610;11.136;2024-01-15T13:44:53;14.73;;;8.07;;
15254;SDS011;7730;49.610;11.136;2024-01-15T13:47:22;15.10;;;8.10;;
15254;SDS011;7730;49.610;11.136;2024-01-15T13:49:49;15.97;;;8.40;;
15254;SDS011;7730;49.610;11.136;2024-01-15T13:52:16;15.17;;;7.70;;
15254;SDS011;7730;49.610;11.136;2024-01-15T13:54:46;16.87;;;8.63;;
15254;SDS011;7730;49.610;11.136;2024-01-15T13:57:14;17.57;;;8.80;;
15254;SDS011;7730;49.610;11.136;2024-01-15T13:59:48;15.53;;;7.57;;
15254;SDS011;7730;49.610;11.136;2024-01-15T14:02:17;16.07;;;7.93;;
15254;SDS011;7730;49.610;11.136;2024-01-15T14:04:45;15.13;;;7.37;;
15254;SDS011;7730;49.610;11.136;2024-01-15T14:07:13;13.30;;;6.47;;
15254;SDS011;7730;49.610;11.136;2024-01-15T14:09:40;14.90;;;7.30;;
15254;SDS011;7730;49.610;11.136;2024-01-15T14:12:07;14.67;;;7.07;;
15254;SDS011;7730;49.610;11.136;2024-01-15T14:14:38;15.00;;;7.53;;
15254;SDS011;7730;49.610;11.136;2024-01-15T14:17:06;14.90;;;6.90;;
15254;SDS011;7730;49.610;11.136;2024-01-15T14:19:39;14.83;;;6.30;;
15254;SDS011;7730;49.610;11.136;2024-01-15T14:22:07;14.20;;;6.90;;
15254;SDS011;7730;49.610;11.136;2024-01-15T14:24:34;13.23;;;6.37;;
15254;SDS011;7730;49.610;11.136;2024-01-15T14:27:01;14.23;;;6.53;;
15254;SDS011;7730;49.610;11.136;2024-01-15T14:29:30;13.17;;;6.13;;
15254;SDS011;7730;49.610;11.136;2024-01-15T14:31:58;14.20;;;6.43;;
15254;SDS011;7730;49.610;11.136;2024-01-15T14:34:30;13.77;;;6.57;;
15254;SDS011;7730;49.610;11.136;2024-01-15T14:36:58;15.13;;;7.17;;
15254;SDS011;7730;49.610;11.136;2024-01-15T14:39:26;13.97;;;5.83;;